createdAt,value
2023-05-21T00:00:26.926Z,14.43
2023-05-21T00:05:28.874Z,14.41
2023-05-21T00:10:30.601Z,14.41
2023-05-21T00:15:32.363Z,14.43
2023-05-21T00:20:34.136Z,14.47
2023-05-21T00:25:36.041Z,14.49
2023-05-21T00:30:38.196Z,14.49
2023-05-21T00:35:40.083Z,14.46
2023-05-21T00:40:41.859Z,14.45
2023-05-21T00:45:47.517Z,14.44
2023-05-21T00:50:50.208Z,14.43
2023-05-21T00:55:52.069Z,14.44
2023-05-21T01:00:57.063Z,14.44
2023-05-21T01:06:01.504Z,14.43
2023-05-21T01:11:05.194Z,14.42
2023-05-21T01:16:08.990Z,14.41
2023-05-21T01:21:11.195Z,14.40
2023-05-21T01:26:13.132Z,14.38
2023-05-21T01:31:26.419Z,14.37
2023-05-21T01:36:34.789Z,14.33
2023-05-21T01:41:41.170Z,14.27
2023-05-21T01:46:42.893Z,14.19
2023-05-21T01:51:45.118Z,14.10
2023-05-21T01:56:48.044Z,13.99
2023-05-21T02:01:49.983Z,13.91
2023-05-21T02:06:52.038Z,13.87
2023-05-21T02:11:54.324Z,13.87
2023-05-21T02:16:56.848Z,13.87
2023-05-21T02:21:58.532Z,13.89
2023-05-21T02:27:00.402Z,13.90
2023-05-21T02:32:02.827Z,13.91
2023-05-21T02:37:04.674Z,13.89
2023-05-21T02:42:06.599Z,13.84
2023-05-21T02:47:10.413Z,13.80
2023-05-21T02:52:12.966Z,13.79
2023-05-21T02:57:15.263Z,13.82
2023-05-21T03:02:17.204Z,13.84
2023-05-21T03:07:20.122Z,13.88
2023-05-21T03:12:22.203Z,13.94
2023-05-21T03:17:23.992Z,14.02
2023-05-21T03:22:25.895Z,14.09
2023-05-21T03:27:28.010Z,14.15
2023-05-21T03:32:30.280Z,14.20
2023-05-21T03:37:32.727Z,14.25
2023-05-21T03:42:35.269Z,14.29
2023-05-21T03:47:37.338Z,14.36
2023-05-21T03:52:41.321Z,14.48
2023-05-21T03:57:43.804Z,14.90
2023-05-21T04:07:15.329Z,16.26
2023-05-21T04:12:19.184Z,17.02
2023-05-21T04:17:22.391Z,17.73
2023-05-21T04:22:26.835Z,18.31
2023-05-21T04:27:28.694Z,18.78
2023-05-21T04:32:33.546Z,19.14
2023-05-21T04:37:36.383Z,19.34
2023-05-21T04:42:39.280Z,19.51
2023-05-21T04:47:43.389Z,19.77
2023-05-21T04:52:45.739Z,19.88
2023-05-21T04:57:47.663Z,19.68
2023-05-21T05:02:49.729Z,19.63
2023-05-21T05:07:51.712Z,19.82
2023-05-21T05:12:53.668Z,20.00
2023-05-21T05:17:56.701Z,20.11
2023-05-21T05:22:58.638Z,20.29
2023-05-21T05:28:00.821Z,20.46
2023-05-21T05:33:02.997Z,20.62
2023-05-21T05:38:05.970Z,20.89
2023-05-21T05:43:07.925Z,21.05
2023-05-21T05:48:09.888Z,21.19
2023-05-21T05:53:13.423Z,21.36
2023-05-21T05:58:15.634Z,21.54
2023-05-21T06:03:41.712Z,21.54
2023-05-21T06:08:46.608Z,21.68
2023-05-21T06:13:48.497Z,22.00
2023-05-21T06:18:51.492Z,22.22
2023-05-21T06:23:53.467Z,22.48
2023-05-21T06:28:56.675Z,22.68
2023-05-21T06:34:00.008Z,22.83
2023-05-21T06:39:03.417Z,23.01
2023-05-21T06:44:06.128Z,23.26
2023-05-21T06:49:35.039Z,23.59
2023-05-21T06:54:37.121Z,23.88
2023-05-21T06:59:39.369Z,24.06
2023-05-21T07:04:41.228Z,24.08
2023-05-21T07:09:42.950Z,23.89
2023-05-21T07:14:45.268Z,24.09
2023-05-21T07:19:47.182Z,24.54
2023-05-21T07:24:49.407Z,24.79
2023-05-21T07:29:52.359Z,24.78
2023-05-21T07:34:56.730Z,24.88
2023-05-21T07:40:00.475Z,25.27
2023-05-21T07:45:03.042Z,25.62
2023-05-21T07:50:08.766Z,26.12
2023-05-21T07:55:11.313Z,26.32
2023-05-21T08:00:14.310Z,26.62
2023-05-21T08:05:24.456Z,26.99
2023-05-21T08:10:26.400Z,27.21
2023-05-21T08:15:28.363Z,27.38
2023-05-21T08:20:32.248Z,27.39
2023-05-21T08:25:34.260Z,27.57
2023-05-21T08:30:37.573Z,27.75
2023-05-21T08:35:39.529Z,27.90
2023-05-21T08:40:59.582Z,28.05
2023-05-21T08:46:04.228Z,28.25
2023-05-21T08:51:07.826Z,28.23
2023-05-21T08:56:17.855Z,28.33
2023-05-21T09:01:42.298Z,28.38
2023-05-21T09:06:54.963Z,28.19
2023-05-21T09:12:10.148Z,28.19
2023-05-21T09:17:14.935Z,28.33
2023-05-21T09:22:17.652Z,28.46
2023-05-21T09:27:19.507Z,28.45
2023-05-21T09:32:21.382Z,28.54
2023-05-21T09:37:27.569Z,28.68
2023-05-21T09:42:30.156Z,28.92
2023-05-21T09:47:32.486Z,29.00
2023-05-21T09:52:37.295Z,28.98
2023-05-21T09:57:50.887Z,29.05
2023-05-21T10:03:01.818Z,29.14
2023-05-21T10:08:04.892Z,29.34
2023-05-21T10:13:10.365Z,29.49
2023-05-21T10:18:13.645Z,29.65
2023-05-21T10:23:15.699Z,29.94
2023-05-21T10:28:20.707Z,30.08
2023-05-21T10:33:25.073Z,30.15
2023-05-21T10:38:27.967Z,30.10
2023-05-21T10:43:48.588Z,30.24
2023-05-21T10:48:56.066Z,30.29
2023-05-21T10:54:36.996Z,30.35
2023-05-21T10:59:49.346Z,30.66
2023-05-21T11:04:58.751Z,30.89
2023-05-21T11:10:32.781Z,30.97
2023-05-21T11:15:57.747Z,31.23
2023-05-21T11:21:06.812Z,31.47
2023-05-21T11:26:08.561Z,31.49
2023-05-21T11:31:27.254Z,31.04
2023-05-21T11:36:29.135Z,31.08
2023-05-21T11:41:31.065Z,30.90
2023-05-21T11:46:34.274Z,30.65
2023-05-21T11:51:36.725Z,30.71
2023-05-21T11:56:42.028Z,30.62
2023-05-21T12:01:44.293Z,30.97
2023-05-21T12:06:46.129Z,30.97
2023-05-21T12:11:47.906Z,31.34
2023-05-21T12:16:49.952Z,31.03
2023-05-21T12:21:51.739Z,30.50
2023-05-21T12:26:55.195Z,30.30
2023-05-21T12:32:01.774Z,30.30
2023-05-21T12:37:05.508Z,30.25
2023-05-21T12:42:08.496Z,30.52
2023-05-21T12:47:11.263Z,30.88
2023-05-21T12:52:14.466Z,30.60
2023-05-21T12:57:17.474Z,29.90
2023-05-21T13:02:22.153Z,29.55
2023-05-21T13:07:26.331Z,29.74
2023-05-21T13:12:30.028Z,29.95
2023-05-21T13:17:32.315Z,30.34
2023-05-21T13:22:35.734Z,30.33
2023-05-21T13:27:39.696Z,30.37
2023-05-21T13:32:42.681Z,30.20
2023-05-21T13:37:45.071Z,30.05
2023-05-21T13:42:48.824Z,30.45
2023-05-21T13:47:50.789Z,30.46
2023-05-21T13:52:52.489Z,30.25
2023-05-21T13:57:54.379Z,30.36
2023-05-21T14:02:56.795Z,30.75
2023-05-21T14:07:58.950Z,30.94
2023-05-21T14:13:11.228Z,31.13
2023-05-21T14:18:17.765Z,31.19
2023-05-21T14:23:19.576Z,31.28
2023-05-21T14:28:21.859Z,31.09
2023-05-21T14:33:23.681Z,30.69
2023-05-21T14:38:25.995Z,30.58
2023-05-21T14:43:27.754Z,30.95
2023-05-21T14:48:29.514Z,31.05
2023-05-21T14:53:31.323Z,30.57
2023-05-21T14:58:33.182Z,30.14
2023-05-21T15:03:35.046Z,29.97
2023-05-21T15:08:36.958Z,29.89
2023-05-21T15:13:39.568Z,30.03
2023-05-21T15:18:41.357Z,29.98
2023-05-21T15:23:43.065Z,29.58
2023-05-21T15:28:44.797Z,29.29
2023-05-21T15:33:46.566Z,29.29
2023-05-21T15:38:48.633Z,29.33
2023-05-21T15:43:50.394Z,29.09
2023-05-21T15:48:52.152Z,28.97
2023-05-21T15:53:54.512Z,28.74
2023-05-21T15:58:58.650Z,28.48
2023-05-21T16:04:03.372Z,28.78
2023-05-21T16:09:05.563Z,29.07
2023-05-21T16:14:07.408Z,29.22
2023-05-21T16:19:09.169Z,29.30
2023-05-21T16:24:11.023Z,29.08
2023-05-21T16:29:14.851Z,28.81
2023-05-21T16:34:16.611Z,28.29
2023-05-21T16:39:18.442Z,27.97
2023-05-21T16:44:20.424Z,27.95
2023-05-21T16:49:22.180Z,27.94
2023-05-21T16:54:23.913Z,27.64
2023-05-21T16:59:25.676Z,26.99
2023-05-21T17:04:27.424Z,26.38
2023-05-21T17:09:29.397Z,25.80
2023-05-21T17:14:34.178Z,25.45
2023-05-21T17:19:37.557Z,25.19
2023-05-21T17:24:39.505Z,25.01
2023-05-21T17:29:41.492Z,24.68
2023-05-21T17:34:44.051Z,24.12
2023-05-21T17:39:46.050Z,23.58
2023-05-21T17:44:47.785Z,23.07
2023-05-21T17:49:49.512Z,22.63
2023-05-21T17:54:51.491Z,22.28
2023-05-21T17:59:53.276Z,21.96
2023-05-21T18:04:55.136Z,21.66
2023-05-21T18:09:57.048Z,21.32
2023-05-21T18:14:58.869Z,20.92
2023-05-21T18:20:00.648Z,20.51
2023-05-21T18:25:03.548Z,20.13
2023-05-21T18:30:08.585Z,19.80
2023-05-21T18:35:12.005Z,19.45
2023-05-21T18:40:16.980Z,19.12
2023-05-21T18:45:18.757Z,18.86
2023-05-21T18:50:20.605Z,18.63
2023-05-21T18:55:22.621Z,18.38
2023-05-21T19:00:24.348Z,18.17
2023-05-21T19:05:26.389Z,17.97
2023-05-21T19:10:30.697Z,17.77
2023-05-21T19:15:33.021Z,17.58
2023-05-21T19:20:36.984Z,17.41
2023-05-21T19:25:39.254Z,17.24
2023-05-21T19:30:41.097Z,17.11
2023-05-21T19:35:43.489Z,17.02
2023-05-21T19:40:45.512Z,16.91
2023-05-21T19:45:47.426Z,16.80
2023-05-21T19:50:49.185Z,16.73
2023-05-21T19:55:51.188Z,16.72
2023-05-21T20:00:55.803Z,16.69
2023-05-21T20:05:58.682Z,16.62
2023-05-21T20:11:00.877Z,16.52
2023-05-21T20:16:02.613Z,16.42
2023-05-21T20:21:06.398Z,16.31
2023-05-21T20:26:08.388Z,16.26
2023-05-21T20:31:10.196Z,16.29
2023-05-21T20:36:15.292Z,16.34
2023-05-21T20:41:17.321Z,16.28
2023-05-21T20:46:19.944Z,16.17
2023-05-21T20:51:21.842Z,16.03
2023-05-21T20:56:39.884Z,15.88
2023-05-21T21:01:43.643Z,15.75
2023-05-21T21:06:47.277Z,15.71
2023-05-21T21:11:50.740Z,15.68
2023-05-21T21:16:54.350Z,15.63
2023-05-21T21:21:56.246Z,15.55
2023-05-21T21:26:58.023Z,15.45
2023-05-21T21:31:59.890Z,15.36
2023-05-21T21:37:01.669Z,15.23
2023-05-21T21:42:04.309Z,15.11
2023-05-21T21:47:09.855Z,14.99
2023-05-21T21:52:14.751Z,14.85
2023-05-21T21:57:16.535Z,14.74
2023-05-21T22:02:18.525Z,14.67
2023-05-21T22:07:20.799Z,14.64
2023-05-21T22:12:22.691Z,14.61
2023-05-21T22:17:24.496Z,14.55
2023-05-21T22:22:26.747Z,14.46
2023-05-21T22:27:28.687Z,14.36
2023-05-21T22:32:30.778Z,14.26
2023-05-21T22:37:32.586Z,14.13
2023-05-21T22:42:35.151Z,13.98
2023-05-21T22:47:39.734Z,13.85
2023-05-21T22:52:41.929Z,13.71
2023-05-21T22:57:44.309Z,13.55
2023-05-21T23:02:47.505Z,13.42
2023-05-21T23:07:50.036Z,13.35
2023-05-21T23:12:54.192Z,13.29
2023-05-21T23:17:56.920Z,13.22
2023-05-21T23:22:58.911Z,13.14
2023-05-21T23:28:00.673Z,13.05
2023-05-21T23:33:02.632Z,12.95
2023-05-21T23:38:05.219Z,12.83
2023-05-21T23:43:18.131Z,12.75
2023-05-21T23:48:23.344Z,12.69
2023-05-21T23:53:25.886Z,12.62
2023-05-21T23:58:27.625Z,12.58
